createdAt,value
2017-08-27T00:00:26.135Z,79.21
2017-08-27T00:02:55.188Z,79.11
2017-08-27T00:05:24.276Z,79.19
2017-08-27T00:07:53.333Z,79.02
2017-08-27T00:10:22.488Z,78.95
2017-08-27T00:12:51.538Z,78.80
2017-08-27T00:15:20.630Z,78.84
2017-08-27T00:17:49.700Z,78.84
2017-08-27T00:20:18.764Z,78.68
2017-08-27T00:22:47.853Z,78.81
2017-08-27T00:25:16.948Z,78.60
2017-08-27T00:27:46.021Z,78.79
2017-08-27T00:30:15.129Z,78.75
2017-08-27T00:32:44.231Z,78.67
2017-08-27T00:35:13.309Z,78.56
2017-08-27T00:37:42.387Z,78.47
2017-08-27T00:40:11.565Z,78.37
2017-08-27T00:42:40.642Z,78.45
2017-08-27T00:45:10.550Z,78.50
2017-08-27T00:47:39.625Z,78.83
2017-08-27T00:50:08.687Z,78.74
2017-08-27T00:52:37.765Z,78.59
2017-08-27T00:55:06.853Z,78.64
2017-08-27T00:57:35.935Z,78.62
2017-08-27T01:00:05.765Z,78.57
2017-08-27T01:02:34.856Z,78.60
2017-08-27T01:05:03.945Z,78.53
2017-08-27T01:07:33.019Z,78.21
2017-08-27T01:10:02.111Z,78.28
2017-08-27T01:12:31.160Z,78.18
2017-08-27T01:15:01.364Z,78.15
2017-08-27T01:17:30.497Z,78.19
2017-08-27T01:19:59.585Z,77.77
2017-08-27T01:22:28.671Z,77.60
2017-08-27T01:24:57.712Z,77.71
2017-08-27T01:27:26.787Z,77.61
2017-08-27T01:29:55.851Z,77.27
2017-08-27T01:32:24.919Z,77.39
2017-08-27T01:34:53.993Z,77.14
2017-08-27T01:37:23.309Z,77.13
2017-08-27T01:39:52.377Z,77.39
2017-08-27T01:42:21.420Z,77.81
2017-08-27T01:44:50.509Z,77.92
2017-08-27T01:47:19.561Z,78.03
2017-08-27T01:49:48.984Z,78.12
2017-08-27T01:52:18.035Z,78.34
2017-08-27T01:54:47.366Z,78.64
2017-08-27T01:57:16.444Z,78.49
2017-08-27T01:59:45.643Z,78.65
2017-08-27T02:02:14.728Z,78.77
2017-08-27T02:04:43.795Z,79.02
2017-08-27T02:07:12.833Z,78.80
2017-08-27T02:09:41.911Z,79.01
2017-08-27T02:12:10.978Z,79.34
2017-08-27T02:14:40.060Z,79.17
2017-08-27T02:17:09.157Z,79.16
2017-08-27T02:19:38.200Z,79.20
2017-08-27T02:22:07.647Z,79.62
2017-08-27T02:24:36.695Z,79.59
2017-08-27T02:27:06.156Z,79.49
2017-08-27T02:29:35.963Z,79.36
2017-08-27T02:32:05.035Z,79.33
2017-08-27T02:34:34.088Z,79.24
2017-08-27T02:37:03.204Z,79.13
2017-08-27T02:39:32.649Z,79.38
2017-08-27T02:42:01.744Z,79.45
2017-08-27T02:44:30.795Z,79.46
2017-08-27T02:46:59.859Z,79.47
2017-08-27T02:49:29.006Z,79.44
2017-08-27T02:51:58.074Z,79.11
2017-08-27T02:54:27.264Z,79.34
2017-08-27T02:56:57.272Z,79.24
2017-08-27T02:59:26.359Z,79.05
2017-08-27T03:01:55.423Z,79.29
2017-08-27T03:04:24.523Z,79.04
2017-08-27T03:06:54.349Z,79.14
2017-08-27T03:09:23.409Z,78.81
2017-08-27T03:11:52.465Z,78.81
2017-08-27T03:14:21.534Z,78.59
2017-08-27T03:16:51.375Z,78.76
2017-08-27T03:19:20.497Z,79.06
2017-08-27T03:21:49.602Z,78.95
2017-08-27T03:24:18.688Z,79.05
2017-08-27T03:26:47.743Z,78.70
2017-08-27T03:29:16.835Z,78.80
2017-08-27T03:31:45.903Z,79.17
2017-08-27T03:34:15.025Z,78.95
2017-08-27T03:36:44.204Z,78.61
2017-08-27T03:39:14.056Z,78.82
2017-08-27T03:41:43.123Z,78.97
2017-08-27T03:44:12.200Z,78.85
2017-08-27T03:46:41.290Z,79.23
2017-08-27T03:49:10.367Z,79.40
2017-08-27T03:51:39.415Z,79.28
2017-08-27T03:54:08.486Z,79.23
2017-08-27T03:56:38.315Z,79.01
2017-08-27T03:59:07.391Z,79.29
2017-08-27T04:01:37.230Z,79.17
2017-08-27T04:04:06.301Z,79.21
2017-08-27T04:06:36.169Z,79.59
2017-08-27T04:09:05.227Z,79.26
2017-08-27T04:11:34.300Z,79.16
2017-08-27T04:14:03.387Z,79.06
2017-08-27T04:16:32.484Z,79.39
2017-08-27T04:19:01.547Z,79.14
2017-08-27T04:21:30.636Z,79.14
2017-08-27T04:23:59.732Z,79.18
2017-08-27T04:26:28.780Z,79.02
2017-08-27T04:28:57.861Z,79.26
2017-08-27T04:31:26.911Z,79.48
2017-08-27T04:33:55.975Z,79.33
2017-08-27T04:36:25.051Z,79.55
2017-08-27T04:38:54.865Z,79.60
2017-08-27T04:41:24.695Z,79.41
2017-08-27T04:43:53.785Z,79.71
2017-08-27T04:46:22.869Z,79.89
2017-08-27T04:48:52.703Z,79.86
2017-08-27T04:51:21.764Z,79.81
2017-08-27T04:53:50.876Z,79.74
2017-08-27T04:56:19.939Z,79.91
2017-08-27T04:58:49.020Z,79.90
2017-08-27T05:01:18.091Z,80.16
2017-08-27T05:03:47.188Z,80.10
2017-08-27T05:06:16.238Z,80.20
2017-08-27T05:08:45.312Z,79.76
2017-08-27T05:11:14.384Z,79.76
2017-08-27T05:13:43.457Z,79.91
2017-08-27T05:16:12.540Z,80.00
2017-08-27T05:18:42.535Z,80.01
2017-08-27T05:21:11.608Z,80.04
2017-08-27T05:23:40.677Z,80.04
2017-08-27T05:26:09.792Z,80.02
2017-08-27T05:28:39.059Z,79.95
2017-08-27T05:31:08.144Z,80.09
2017-08-27T05:33:37.280Z,79.99
2017-08-27T05:36:06.623Z,79.95
2017-08-27T05:38:35.660Z,79.91
2017-08-27T05:41:04.948Z,80.05
2017-08-27T05:43:34.005Z,79.71
2017-08-27T05:46:03.849Z,79.15
2017-08-27T05:48:32.904Z,79.00
2017-08-27T05:51:01.983Z,78.49
2017-08-27T05:53:31.094Z,77.85
2017-08-27T05:56:00.125Z,78.03
2017-08-27T05:58:29.218Z,77.12
2017-08-27T06:00:58.296Z,76.83
2017-08-27T06:03:27.367Z,76.96
2017-08-27T06:05:56.448Z,75.89
2017-08-27T06:08:25.496Z,76.05
2017-08-27T06:10:54.561Z,76.30
2017-08-27T06:13:23.626Z,75.58
2017-08-27T06:15:52.741Z,75.48
2017-08-27T06:18:21.818Z,75.83
2017-08-27T06:20:51.098Z,76.22
2017-08-27T06:23:20.196Z,76.74
2017-08-27T06:25:49.253Z,76.65
2017-08-27T06:28:18.334Z,77.24
2017-08-27T06:30:47.397Z,76.25
2017-08-27T06:33:16.459Z,76.38
2017-08-27T06:35:45.563Z,76.08
2017-08-27T06:38:14.604Z,75.38
2017-08-27T06:40:43.684Z,75.32
2017-08-27T06:43:12.740Z,74.80
2017-08-27T06:45:41.831Z,74.85
2017-08-27T06:48:10.905Z,74.99
2017-08-27T06:50:39.975Z,75.62
2017-08-27T06:53:09.162Z,76.01
2017-08-27T06:55:38.232Z,76.30
2017-08-27T06:58:07.640Z,75.88
2017-08-27T07:00:36.711Z,75.75
2017-08-27T07:03:05.828Z,76.10
2017-08-27T07:05:35.186Z,75.18
2017-08-27T07:08:04.256Z,75.35
2017-08-27T07:10:33.321Z,74.99
2017-08-27T07:13:02.396Z,73.70
2017-08-27T07:15:31.572Z,74.12
2017-08-27T07:18:00.644Z,73.33
2017-08-27T07:20:29.700Z,74.75
2017-08-27T07:22:58.817Z,75.57
2017-08-27T07:25:27.924Z,76.42
2017-08-27T07:27:56.971Z,76.74
2017-08-27T07:30:26.071Z,76.54
2017-08-27T07:32:55.125Z,76.21
2017-08-27T07:35:24.217Z,75.97
2017-08-27T07:37:53.289Z,74.29
2017-08-27T07:40:22.340Z,73.37
2017-08-27T07:42:51.415Z,73.48
2017-08-27T07:45:20.826Z,73.59
2017-08-27T07:47:50.656Z,72.46
2017-08-27T07:50:19.725Z,70.69
2017-08-27T07:52:48.797Z,70.13
2017-08-27T07:55:17.854Z,71.27
2017-08-27T07:57:46.915Z,71.52
2017-08-27T08:00:15.992Z,71.24
2017-08-27T08:02:45.091Z,70.12
2017-08-27T08:05:15.000Z,70.49
2017-08-27T08:07:44.222Z,70.29
2017-08-27T08:10:13.283Z,69.54
2017-08-27T08:12:42.333Z,68.33
2017-08-27T08:15:11.447Z,68.87
2017-08-27T08:17:40.589Z,67.69
2017-08-27T08:20:10.004Z,67.83
2017-08-27T08:22:39.068Z,66.30
2017-08-27T08:25:08.748Z,65.31
2017-08-27T08:27:37.838Z,65.17
2017-08-27T08:30:06.971Z,65.11
2017-08-27T08:32:36.040Z,65.18
2017-08-27T08:35:05.133Z,63.18
2017-08-27T08:37:34.196Z,63.61
2017-08-27T08:40:03.276Z,65.14
2017-08-27T08:42:32.324Z,65.14
2017-08-27T08:45:01.388Z,63.45
2017-08-27T08:47:30.448Z,63.63
2017-08-27T08:49:59.501Z,64.90
2017-08-27T08:52:28.607Z,63.96
2017-08-27T08:54:57.706Z,62.84
2017-08-27T08:57:26.805Z,64.45
2017-08-27T08:59:55.872Z,64.51
2017-08-27T09:02:24.949Z,63.72
2017-08-27T09:04:54.025Z,59.51
2017-08-27T09:07:23.085Z,60.52
2017-08-27T09:09:52.132Z,60.97
2017-08-27T09:12:21.224Z,60.79
2017-08-27T09:14:50.283Z,60.74
2017-08-27T09:17:19.359Z,60.60
2017-08-27T09:19:48.405Z,57.92
2017-08-27T09:22:18.266Z,58.35
2017-08-27T09:24:47.339Z,58.49
2017-08-27T09:27:16.422Z,56.96
2017-08-27T09:29:45.494Z,56.31
2017-08-27T09:32:14.555Z,53.93
2017-08-27T09:34:43.611Z,53.23
2017-08-27T09:39:40.954Z,54.28
2017-08-27T09:42:10.292Z,53.40
2017-08-27T09:44:39.359Z,54.02
2017-08-27T09:47:08.438Z,53.73
2017-08-27T09:49:37.517Z,51.75
2017-08-27T09:52:06.568Z,51.33
2017-08-27T09:54:35.620Z,52.13
2017-08-27T09:57:04.753Z,51.82
2017-08-27T09:59:33.786Z,50.62
2017-08-27T10:02:02.864Z,47.79
2017-08-27T10:04:32.175Z,48.74
2017-08-27T10:07:02.132Z,47.41
2017-08-27T10:09:31.182Z,48.57
2017-08-27T10:12:00.239Z,48.61
2017-08-27T10:14:29.472Z,48.36
2017-08-27T10:16:58.532Z,46.46
2017-08-27T10:19:27.625Z,46.63
2017-08-27T10:21:56.678Z,47.34
2017-08-27T10:24:25.725Z,47.65
2017-08-27T10:26:55.077Z,46.14
2017-08-27T10:29:24.136Z,44.67
2017-08-27T10:31:53.227Z,46.13
2017-08-27T10:34:22.297Z,45.99
2017-08-27T10:36:51.370Z,46.26
2017-08-27T10:39:20.442Z,46.67
2017-08-27T10:41:49.893Z,46.25
2017-08-27T10:44:18.978Z,48.06
2017-08-27T10:46:48.174Z,47.18
2017-08-27T10:49:17.244Z,48.12
2017-08-27T10:51:46.324Z,49.15
2017-08-27T10:54:15.372Z,48.48
2017-08-27T10:56:44.556Z,47.78
2017-08-27T10:59:13.634Z,47.12
2017-08-27T11:01:42.753Z,45.59
2017-08-27T11:04:11.802Z,45.57
2017-08-27T11:06:40.855Z,45.43
2017-08-27T11:09:09.947Z,44.76
2017-08-27T11:11:38.988Z,44.99
2017-08-27T11:14:08.048Z,43.69
2017-08-27T11:16:37.112Z,45.02
2017-08-27T11:19:06.188Z,44.10
2017-08-27T11:21:35.207Z,46.42
2017-08-27T11:24:04.300Z,45.84
2017-08-27T11:26:33.370Z,45.08
2017-08-27T11:29:02.430Z,43.50
2017-08-27T11:31:31.505Z,45.99
2017-08-27T11:34:00.560Z,45.00
2017-08-27T11:36:29.617Z,46.50
2017-08-27T11:38:58.671Z,47.26
2017-08-27T11:41:27.732Z,44.75
2017-08-27T11:43:56.788Z,45.27
2017-08-27T11:46:25.862Z,45.72
2017-08-27T11:48:54.969Z,45.17
2017-08-27T11:51:23.996Z,45.66
2017-08-27T11:53:53.037Z,46.47
2017-08-27T11:56:22.252Z,45.57
2017-08-27T11:58:51.302Z,45.55
2017-08-27T12:01:20.366Z,45.58
2017-08-27T12:03:49.475Z,46.18
2017-08-27T12:06:18.577Z,46.32
2017-08-27T12:08:47.919Z,47.51
2017-08-27T12:11:16.983Z,47.46
2017-08-27T12:13:46.064Z,46.41
2017-08-27T12:16:15.192Z,47.12
2017-08-27T12:18:44.306Z,47.30
2017-08-27T12:21:13.343Z,47.75
2017-08-27T12:23:42.401Z,48.21
2017-08-27T12:26:11.455Z,49.24
2017-08-27T12:28:40.555Z,48.88
2017-08-27T12:31:09.628Z,47.56
2017-08-27T12:33:38.687Z,46.57
2017-08-27T12:36:07.780Z,47.40
2017-08-27T12:38:36.812Z,46.78
2017-08-27T12:41:05.915Z,48.08
2017-08-27T12:43:35.024Z,47.85
2017-08-27T12:46:04.092Z,46.12
2017-08-27T12:48:33.147Z,46.37
2017-08-27T12:51:02.211Z,45.74
2017-08-27T12:53:31.272Z,46.39
2017-08-27T12:56:00.347Z,46.60
2017-08-27T12:58:29.396Z,47.34
2017-08-27T13:00:58.499Z,46.96
2017-08-27T13:03:27.614Z,47.13
2017-08-27T13:05:56.698Z,45.76
2017-08-27T13:08:25.771Z,46.21
2017-08-27T13:10:54.864Z,46.85
2017-08-27T13:13:23.977Z,47.15
2017-08-27T13:15:53.057Z,45.19
2017-08-27T13:18:22.129Z,45.44
2017-08-27T13:20:51.189Z,45.99
2017-08-27T13:23:20.507Z,46.39
2017-08-27T13:25:49.574Z,47.21
2017-08-27T13:28:18.616Z,47.42
2017-08-27T13:30:47.707Z,45.38
2017-08-27T13:33:16.744Z,46.38
2017-08-27T13:35:45.793Z,46.26
2017-08-27T13:38:14.855Z,46.15
2017-08-27T13:40:43.902Z,44.82
2017-08-27T13:43:13.000Z,45.54
2017-08-27T13:45:43.089Z,46.24
2017-08-27T13:48:12.169Z,46.16
2017-08-27T13:50:41.234Z,44.83
2017-08-27T13:53:10.328Z,45.70
2017-08-27T13:55:39.411Z,46.67
2017-08-27T13:58:08.465Z,47.28
2017-08-27T14:00:37.545Z,47.30
2017-08-27T14:03:06.892Z,47.18
2017-08-27T14:05:36.045Z,46.91
2017-08-27T14:08:05.124Z,46.89
2017-08-27T14:10:34.196Z,48.42
2017-08-27T14:13:03.243Z,46.90
2017-08-27T14:15:32.443Z,47.21
2017-08-27T14:18:01.636Z,47.97
2017-08-27T14:20:30.691Z,46.22
2017-08-27T14:22:59.760Z,47.27
2017-08-27T14:25:28.875Z,46.22
2017-08-27T14:27:58.027Z,45.81
2017-08-27T14:30:27.405Z,45.51
2017-08-27T14:32:56.424Z,45.52
2017-08-27T14:35:25.506Z,46.45
2017-08-27T14:37:54.560Z,46.47
2017-08-27T14:40:23.857Z,45.93
2017-08-27T14:42:52.923Z,46.38
2017-08-27T14:45:22.013Z,44.81
2017-08-27T14:47:51.085Z,44.95
2017-08-27T14:50:21.033Z,46.07
2017-08-27T14:52:50.140Z,45.49
2017-08-27T14:55:19.807Z,45.73
2017-08-27T14:57:48.907Z,46.38
2017-08-27T15:00:18.095Z,45.96
2017-08-27T15:02:47.133Z,46.73
2017-08-27T15:05:16.457Z,45.81
2017-08-27T15:07:45.480Z,45.28
2017-08-27T15:10:14.566Z,45.90
2017-08-27T15:12:43.619Z,45.41
2017-08-27T15:15:13.332Z,45.20
2017-08-27T15:17:42.384Z,45.58
2017-08-27T15:20:11.442Z,45.68
2017-08-27T15:22:40.547Z,45.85
2017-08-27T15:25:09.619Z,45.40
2017-08-27T15:27:38.660Z,45.86
2017-08-27T15:30:08.010Z,46.02
2017-08-27T15:32:37.060Z,46.35
2017-08-27T15:35:06.147Z,45.33
2017-08-27T15:37:35.232Z,46.29
2017-08-27T15:40:04.342Z,44.94
2017-08-27T15:42:33.408Z,45.25
2017-08-27T15:45:02.480Z,45.11
2017-08-27T15:47:31.537Z,45.39
2017-08-27T15:50:00.580Z,45.83
2017-08-27T15:52:29.664Z,45.11
2017-08-27T15:54:58.764Z,45.55
2017-08-27T15:57:27.875Z,45.26
2017-08-27T15:59:56.913Z,46.62
2017-08-27T16:02:25.997Z,45.25
2017-08-27T16:04:55.273Z,45.80
2017-08-27T16:07:24.357Z,44.96
2017-08-27T16:09:53.490Z,45.54
2017-08-27T16:12:22.524Z,45.37
2017-08-27T16:14:51.600Z,45.32
2017-08-27T16:17:20.673Z,44.86
2017-08-27T16:19:49.757Z,44.75
2017-08-27T16:22:18.825Z,44.75
2017-08-27T16:24:47.879Z,45.53
2017-08-27T16:27:16.948Z,45.19
2017-08-27T16:29:45.987Z,45.90
2017-08-27T16:32:15.053Z,45.33
2017-08-27T16:34:44.395Z,44.98
2017-08-27T16:37:13.446Z,44.56
2017-08-27T16:39:42.595Z,45.53
2017-08-27T16:42:11.696Z,45.64
2017-08-27T16:44:40.752Z,45.48
2017-08-27T16:47:27.676Z,45.99
2017-08-27T16:49:56.740Z,45.70
2017-08-27T16:52:25.813Z,45.37
2017-08-27T16:54:55.099Z,45.59
2017-08-27T16:57:24.211Z,46.38
2017-08-27T16:59:53.284Z,45.54
2017-08-27T17:02:22.355Z,46.07
2017-08-27T17:04:51.425Z,45.65
2017-08-27T17:07:20.508Z,46.23
2017-08-27T17:09:49.569Z,45.80
2017-08-27T17:12:18.629Z,46.34
2017-08-27T17:14:47.750Z,46.71
2017-08-27T17:17:16.830Z,47.40
2017-08-27T17:19:45.873Z,47.54
2017-08-27T17:22:14.947Z,47.20
2017-08-27T17:24:44.007Z,46.79
2017-08-27T17:27:13.093Z,46.20
2017-08-27T17:29:42.173Z,47.31
2017-08-27T17:32:11.368Z,46.57
2017-08-27T17:34:40.435Z,47.28
2017-08-27T17:37:09.530Z,47.57
2017-08-27T17:39:38.619Z,47.60
2017-08-27T17:42:07.685Z,46.85
2017-08-27T17:44:36.746Z,47.29
2017-08-27T17:47:05.903Z,47.30
2017-08-27T17:49:34.982Z,47.65
2017-08-27T17:52:04.120Z,47.92
2017-08-27T17:54:33.180Z,48.07
2017-08-27T17:57:02.269Z,48.52
2017-08-27T17:59:31.321Z,48.80
2017-08-27T18:02:00.424Z,48.81
2017-08-27T18:04:29.476Z,49.21
2017-08-27T18:06:58.556Z,49.25
2017-08-27T18:09:27.643Z,49.42
2017-08-27T18:11:56.696Z,49.58
2017-08-27T18:14:25.785Z,49.49
2017-08-27T18:16:54.859Z,49.65
2017-08-27T18:19:23.908Z,49.95
2017-08-27T18:21:52.951Z,50.48
2017-08-27T18:24:22.045Z,50.40
2017-08-27T18:26:51.132Z,50.25
2017-08-27T18:29:20.196Z,51.00
2017-08-27T18:31:49.269Z,51.62
2017-08-27T18:34:18.636Z,52.07
2017-08-27T18:36:47.680Z,52.58
2017-08-27T18:39:16.725Z,53.61
2017-08-27T18:41:45.837Z,54.19
2017-08-27T18:44:14.928Z,54.43
2017-08-27T18:46:44.004Z,54.88
2017-08-27T18:49:13.091Z,54.99
2017-08-27T18:51:42.139Z,55.87
2017-08-27T18:54:11.232Z,55.97
2017-08-27T18:56:40.306Z,55.98
2017-08-27T18:59:09.392Z,56.14
2017-08-27T19:01:38.459Z,56.81
2017-08-27T19:04:07.509Z,57.03
2017-08-27T19:06:36.572Z,57.36
2017-08-27T19:09:05.661Z,57.64
2017-08-27T19:11:34.761Z,57.91
2017-08-27T19:14:03.850Z,58.16
2017-08-27T19:16:32.925Z,58.68
2017-08-27T19:19:02.005Z,58.77
2017-08-27T19:21:31.095Z,58.79
2017-08-27T19:24:00.171Z,58.96
2017-08-27T19:26:29.615Z,59.18
2017-08-27T19:28:58.871Z,59.49
2017-08-27T19:31:27.920Z,59.58
2017-08-27T19:33:56.988Z,60.19
2017-08-27T19:36:26.068Z,60.71
2017-08-27T19:38:55.132Z,60.47
2017-08-27T19:41:24.201Z,60.81
2017-08-27T19:43:53.272Z,61.34
2017-08-27T19:46:22.346Z,61.26
2017-08-27T19:48:51.436Z,61.58
2017-08-27T19:51:20.477Z,61.97
2017-08-27T19:53:49.539Z,62.45
2017-08-27T19:56:18.645Z,62.18
2017-08-27T19:58:47.695Z,62.19
2017-08-27T20:01:16.786Z,62.27
2017-08-27T20:03:45.869Z,62.56
2017-08-27T20:06:14.967Z,63.38
2017-08-27T20:08:44.026Z,64.11
2017-08-27T20:11:13.185Z,64.26
2017-08-27T20:13:42.225Z,64.04
2017-08-27T20:16:11.372Z,64.61
2017-08-27T20:18:40.604Z,63.67
2017-08-27T20:21:09.671Z,63.15
2017-08-27T20:23:38.757Z,63.57
2017-08-27T20:26:07.847Z,63.77
2017-08-27T20:28:36.908Z,63.86
2017-08-27T20:31:06.136Z,64.43
2017-08-27T20:33:35.215Z,64.14
2017-08-27T20:36:04.279Z,64.11
2017-08-27T20:38:33.594Z,64.08
2017-08-27T20:41:02.669Z,64.14
2017-08-27T20:43:31.746Z,63.63
2017-08-27T20:46:00.790Z,64.07
2017-08-27T20:48:29.837Z,64.15
2017-08-27T20:50:58.914Z,64.34
2017-08-27T20:53:27.978Z,64.68
2017-08-27T20:55:57.044Z,64.99
2017-08-27T20:58:26.145Z,65.49
2017-08-27T21:00:55.195Z,65.61
2017-08-27T21:03:24.263Z,65.96
2017-08-27T21:05:53.372Z,66.19
2017-08-27T21:08:22.428Z,66.34
2017-08-27T21:10:51.469Z,67.05
2017-08-27T21:13:20.558Z,67.41
2017-08-27T21:15:49.775Z,67.53
2017-08-27T21:18:18.880Z,66.61
2017-08-27T21:20:47.944Z,66.82
2017-08-27T21:23:17.045Z,66.91
2017-08-27T21:25:46.091Z,67.65
2017-08-27T21:28:15.154Z,67.85
2017-08-27T21:30:44.209Z,67.74
2017-08-27T21:33:13.288Z,68.13
2017-08-27T21:35:42.368Z,68.25
2017-08-27T21:38:11.471Z,68.38
2017-08-27T21:40:40.520Z,68.22
2017-08-27T21:43:09.610Z,68.28
2017-08-27T21:45:38.677Z,68.24
2017-08-27T21:48:07.743Z,68.34
2017-08-27T21:50:36.832Z,68.36
2017-08-27T21:53:05.944Z,68.20
2017-08-27T21:55:35.067Z,68.38
2017-08-27T21:58:04.453Z,68.14
2017-08-27T22:00:36.484Z,68.04
2017-08-27T22:03:05.573Z,68.10
2017-08-27T22:05:34.628Z,68.18
2017-08-27T22:08:03.739Z,68.42
2017-08-27T22:10:32.769Z,68.74
2017-08-27T22:13:01.821Z,68.62
2017-08-27T22:15:30.905Z,67.99
2017-08-27T22:17:59.956Z,68.00
2017-08-27T22:20:29.014Z,68.08
2017-08-27T22:22:58.098Z,67.71
2017-08-27T22:25:27.150Z,68.05
2017-08-27T22:27:56.196Z,68.60
2017-08-27T22:30:25.281Z,68.77
2017-08-27T22:32:54.321Z,68.67
2017-08-27T22:35:23.674Z,69.03
2017-08-27T22:37:52.735Z,69.19
2017-08-27T22:40:21.932Z,69.27
2017-08-27T22:42:51.027Z,70.05
2017-08-27T22:45:20.134Z,70.46
2017-08-27T22:47:49.173Z,69.96
2017-08-27T22:50:18.436Z,69.95
2017-08-27T22:52:47.491Z,70.57
2017-08-27T22:55:16.661Z,70.78
2017-08-27T22:57:45.736Z,70.65
2017-08-27T23:00:14.873Z,70.84
2017-08-27T23:02:43.931Z,70.92
2017-08-27T23:05:12.995Z,71.26
2017-08-27T23:07:42.047Z,71.56
2017-08-27T23:10:11.161Z,71.80
2017-08-27T23:12:40.204Z,71.34
2017-08-27T23:15:09.279Z,71.74
2017-08-27T23:17:38.376Z,72.06
2017-08-27T23:20:07.429Z,72.04
2017-08-27T23:22:36.509Z,72.06
2017-08-27T23:25:05.612Z,71.92
2017-08-27T23:27:34.674Z,71.65
2017-08-27T23:30:03.764Z,71.84
2017-08-27T23:32:32.812Z,72.19
2017-08-27T23:35:02.048Z,71.91
2017-08-27T23:37:31.091Z,72.49
2017-08-27T23:40:00.259Z,72.64
2017-08-27T23:42:29.308Z,72.45
2017-08-27T23:44:58.365Z,72.47
2017-08-27T23:47:27.445Z,72.45
2017-08-27T23:49:56.500Z,72.69
2017-08-27T23:52:25.556Z,72.36
2017-08-27T23:54:54.718Z,72.54
2017-08-27T23:57:23.788Z,72.80
2017-08-27T23:59:52.844Z,72.90
